sensor_id;sensor_type;location;lat;lon;timestamp;temperature;humidity
10964;DHT22;5534;48.784;9.190;2022-07-23T00:01:17;26.70;97.70
10964;DHT22;5534;48.784;9.190;2022-07-23T00:03:42;26.70;97.80
10964;DHT22;5534;48.784;9.190;2022-07-23T00:06:08;26.70;97.80
10964;DHT22;5534;48.784;9.190;2022-07-23T00:08:34;26.60;98.10
10964;DHT22;5534;48.784;9.190;2022-07-23T00:11:01;26.70;98.40
10964;DHT22;5534;48.784;9.190;2022-07-23T00:13:27;26.70;98.50
10964;DHT22;5534;48.784;9.190;2022-07-23T00:15:53;26.60;98.10
10964;DHT22;5534;48.784;9.190;2022-07-23T00:18:19;26.50;98.30
10964;DHT22;5534;48.784;9.190;2022-07-23T00:20:45;26.60;98.50
10964;DHT22;5534;48.784;9.190;2022-07-23T00:23:10;26.60;98.10
10964;DHT22;5534;48.784;9.190;2022-07-23T00:25:36;26.60;98.20
10964;DHT22;5534;48.784;9.190;2022-07-23T00:28:03;26.40;98.30
10964;DHT22;5534;48.784;9.190;2022-07-23T00:30:30;26.30;98.50
10964;DHT22;5534;48.784;9.190;2022-07-23T00:32:58;26.50;98.90
10964;DHT22;5534;48.784;9.190;2022-07-23T00:35:25;26.60;98.70
10964;DHT22;5534;48.784;9.190;2022-07-23T00:37:51;26.40;98.70
10964;DHT22;5534;48.784;9.190;2022-07-23T00:40:17;26.30;99.00
10964;DHT22;5534;48.784;9.190;2022-07-23T00:42:44;26.40;99.30
10964;DHT22;5534;48.784;9.190;2022-07-23T00:45:10;26.30;99.90
10964;DHT22;5534;48.784;9.190;2022-07-23T00:47:36;26.30;99.90
10964;DHT22;5534;48.784;9.190;2022-07-23T00:50:03;26.30;99.90
10964;DHT22;5534;48.784;9.190;2022-07-23T00:52:29;26.30;99.90
10964;DHT22;5534;48.784;9.190;2022-07-23T00:54:55;26.20;99.90
10964;DHT22;5534;48.784;9.190;2022-07-23T00:57:21;26.00;99.90
10964;DHT22;5534;48.784;9.190;2022-07-23T00:59:47;26.00;99.90
10964;DHT22;5534;48.784;9.190;2022-07-23T01:02:12;26.00;99.90
10964;DHT22;5534;48.784;9.190;2022-07-23T01:04:38;25.80;99.90
10964;DHT22;5534;48.784;9.190;2022-07-23T01:07:04;25.80;99.90
10964;DHT22;5534;48.784;9.190;2022-07-23T01:09:31;25.90;99.90
10964;DHT22;5534;48.784;9.190;2022-07-23T01:11:57;25.80;99.90
10964;DHT22;5534;48.784;9.190;2022-07-23T01:14:24;25.70;99.90
10964;DHT22;5534;48.784;9.190;2022-07-23T01:16:50;25.70;99.90
10964;DHT22;5534;48.784;9.190;2022-07-23T01:19:17;25.70;99.90
10964;DHT22;5534;48.784;9.190;2022-07-23T01:21:45;25.70;99.90
10964;DHT22;5534;48.784;9.190;2022-07-23T01:24:12;25.50;99.90
10964;DHT22;5534;48.784;9.190;2022-07-23T01:26:41;25.60;99.90
10964;DHT22;5534;48.784;9.190;2022-07-23T01:29:07;25.70;99.90
10964;DHT22;5534;48.784;9.190;2022-07-23T01:31:33;25.70;99.90
10964;DHT22;5534;48.784;9.190;2022-07-23T01:33:58;25.70;99.90
10964;DHT22;5534;48.784;9.190;2022-07-23T01:36:24;25.70;99.90
10964;DHT22;5534;48.784;9.190;2022-07-23T01:38:50;25.70;99.90
10964;DHT22;5534;48.784;9.190;2022-07-23T01:41:16;25.70;99.90
10964;DHT22;5534;48.784;9.190;2022-07-23T01:43:42;25.70;99.90
10964;DHT22;5534;48.784;9.190;2022-07-23T01:46:08;25.70;99.90
10964;DHT22;5534;48.784;9.190;2022-07-23T01:48:34;25.60;99.90
10964;DHT22;5534;48.784;9.190;2022-07-23T01:51:00;25.60;99.90
10964;DHT22;5534;48.784;9.190;2022-07-23T01:53:25;25.50;99.90
10964;DHT22;5534;48.784;9.190;2022-07-23T01:55:51;25.50;99.90
10964;DHT22;5534;48.784;9.190;2022-07-23T01:58:17;25.40;99.90
10964;DHT22;5534;48.784;9.190;2022-07-23T02:00:43;25.40;99.90
10964;DHT22;5534;48.784;9.190;2022-07-23T02:03:08;25.50;99.90
10964;DHT22;5534;48.784;9.190;2022-07-23T02:05:34;25.20;99.90
10964;DHT22;5534;48.784;9.190;2022-07-23T02:08:00;25.30;99.90
10964;DHT22;5534;48.784;9.190;2022-07-23T02:10:27;25.60;99.90
10964;DHT22;5534;48.784;9.190;2022-07-23T02:12:53;25.60;99.90
10964;DHT22;5534;48.784;9.190;2022-07-23T02:15:19;25.50;99.90
10964;DHT22;5534;48.784;9.190;2022-07-23T02:17:45;25.50;99.90
10964;DHT22;5534;48.784;9.190;2022-07-23T02:20:11;25.40;99.90
10964;DHT22;5534;48.784;9.190;2022-07-23T02:22:38;25.30;99.90
10964;DHT22;5534;48.784;9.190;2022-07-23T02:25:05;25.30;99.90
10964;DHT22;5534;48.784;9.190;2022-07-23T02:27:31;25.30;99.90
10964;DHT22;5534;48.784;9.190;2022-07-23T02:29:57;25.30;99.90
10964;DHT22;5534;48.784;9.190;2022-07-23T02:32:23;25.30;99.90
10964;DHT22;5534;48.784;9.190;2022-07-23T02:34:50;25.40;99.90
10964;DHT22;5534;48.784;9.190;2022-07-23T02:37:16;25.50;99.90
10964;DHT22;5534;48.784;9.190;2022-07-23T02:39:41;25.40;99.90
10964;DHT22;5534;48.784;9.190;2022-07-23T02:42:07;25.50;99.90
10964;DHT22;5534;48.784;9.190;2022-07-23T02:44:33;25.50;99.90
10964;DHT22;5534;48.784;9.190;2022-07-23T02:46:59;25.50;99.90
10964;DHT22;5534;48.784;9.190;2022-07-23T02:49:25;25.50;99.90
10964;DHT22;5534;48.784;9.190;2022-07-23T02:51:50;25.50;99.90
10964;DHT22;5534;48.784;9.190;2022-07-23T02:54:16;25.40;99.90
10964;DHT22;5534;48.784;9.190;2022-07-23T02:56:42;25.30;99.90
10964;DHT22;5534;48.784;9.190;2022-07-23T02:59:08;25.10;99.90
10964;DHT22;5534;48.784;9.190;2022-07-23T03:01:34;25.20;99.90
10964;DHT22;5534;48.784;9.190;2022-07-23T03:04:00;25.10;99.90
10964;DHT22;5534;48.784;9.190;2022-07-23T03:06:26;25.10;99.90
10964;DHT22;5534;48.784;9.190;2022-07-23T03:08:52;25.20;99.90
10964;DHT22;5534;48.784;9.190;2022-07-23T03:11:17;25.10;99.90
10964;DHT22;5534;48.784;9.190;2022-07-23T03:13:43;25.20;99.90
10964;DHT22;5534;48.784;9.190;2022-07-23T03:16:09;25.20;99.90
10964;DHT22;5534;48.784;9.190;2022-07-23T03:18:35;25.20;99.90
10964;DHT22;5534;48.784;9.190;2022-07-23T03:21:01;25.20;99.90
10964;DHT22;5534;48.784;9.190;2022-07-23T03:23:27;25.10;99.90
10964;DHT22;5534;48.784;9.190;2022-07-23T03:25:52;25.20;99.90
10964;DHT22;5534;48.784;9.190;2022-07-23T03:28:19;25.20;99.90
10964;DHT22;5534;48.784;9.190;2022-07-23T03:30:45;25.10;99.90
10964;DHT22;5534;48.784;9.190;2022-07-23T03:33:16;25.10;99.90
10964;DHT22;5534;48.784;9.190;2022-07-23T03:35:43;25.10;99.90
10964;DHT22;5534;48.784;9.190;2022-07-23T03:38:09;25.10;99.90
10964;DHT22;5534;48.784;9.190;2022-07-23T03:40:34;25.20;99.90
10964;DHT22;5534;48.784;9.190;2022-07-23T03:43:00;25.20;99.90
10964;DHT22;5534;48.784;9.190;2022-07-23T03:45:26;25.20;99.90
10964;DHT22;5534;48.784;9.190;2022-07-23T03:47:52;25.10;99.90
10964;DHT22;5534;48.784;9.190;2022-07-23T03:50:18;25.10;99.90
10964;DHT22;5534;48.784;9.190;2022-07-23T03:52:44;25.10;99.90
10964;DHT22;5534;48.784;9.190;2022-07-23T03:55:09;25.00;99.90
10964;DHT22;5534;48.784;9.190;2022-07-23T03:57:35;25.10;99.90
10964;DHT22;5534;48.784;9.190;2022-07-23T04:00:02;25.10;99.90
10964;DHT22;5534;48.784;9.190;2022-07-23T04:02:29;25.10;99.90
10964;DHT22;5534;48.784;9.190;2022-07-23T04:04:54;25.20;99.90
10964;DHT22;5534;48.784;9.190;2022-07-23T04:07:20;25.20;99.90
10964;DHT22;5534;48.784;9.190;2022-07-23T04:09:47;25.20;99.90
10964;DHT22;5534;48.784;9.190;2022-07-23T04:12:13;25.20;99.90
10964;DHT22;5534;48.784;9.190;2022-07-23T04:14:39;25.20;99.90
10964;DHT22;5534;48.784;9.190;2022-07-23T04:17:04;25.20;99.90
10964;DHT22;5534;48.784;9.190;2022-07-23T04:19:30;25.20;99.90
10964;DHT22;5534;48.784;9.190;2022-07-23T04:21:57;25.20;99.90
10964;DHT22;5534;48.784;9.190;2022-07-23T04:24:23;25.20;99.90
10964;DHT22;5534;48.784;9.190;2022-07-23T04:26:48;25.20;99.90
10964;DHT22;5534;48.784;9.190;2022-07-23T04:29:14;25.20;99.90
10964;DHT22;5534;48.784;9.190;2022-07-23T04:31:40;25.20;99.90
10964;DHT22;5534;48.784;9.190;2022-07-23T04:34:06;25.20;99.90
10964;DHT22;5534;48.784;9.190;2022-07-23T04:36:31;25.20;99.90
10964;DHT22;5534;48.784;9.190;2022-07-23T04:38:57;25.10;99.90
10964;DHT22;5534;48.784;9.190;2022-07-23T04:41:23;25.10;99.90
10964;DHT22;5534;48.784;9.190;2022-07-23T04:43:49;25.20;99.90
10964;DHT22;5534;48.784;9.190;2022-07-23T04:46:14;25.20;99.90
10964;DHT22;5534;48.784;9.190;2022-07-23T04:48:40;25.20;99.90
10964;DHT22;5534;48.784;9.190;2022-07-23T04:51:07;25.30;99.90
10964;DHT22;5534;48.784;9.190;2022-07-23T04:53:33;25.20;99.90
10964;DHT22;5534;48.784;9.190;2022-07-23T04:55:59;25.30;99.90
10964;DHT22;5534;48.784;9.190;2022-07-23T04:58:25;25.30;99.90
10964;DHT22;5534;48.784;9.190;2022-07-23T05:00:50;25.20;99.90
10964;DHT22;5534;48.784;9.190;2022-07-23T05:03:17;25.20;99.90
10964;DHT22;5534;48.784;9.190;2022-07-23T05:05:43;25.30;99.90
10964;DHT22;5534;48.784;9.190;2022-07-23T05:08:08;25.30;99.90
10964;DHT22;5534;48.784;9.190;2022-07-23T05:10:34;25.40;99.90
10964;DHT22;5534;48.784;9.190;2022-07-23T05:13:00;25.30;99.90
10964;DHT22;5534;48.784;9.190;2022-07-23T05:15:25;25.40;99.90
10964;DHT22;5534;48.784;9.190;2022-07-23T05:17:51;25.30;99.90
10964;DHT22;5534;48.784;9.190;2022-07-23T05:20:17;25.30;99.90
10964;DHT22;5534;48.784;9.190;2022-07-23T05:22:43;25.30;99.90
10964;DHT22;5534;48.784;9.190;2022-07-23T05:25:09;25.30;99.90
10964;DHT22;5534;48.784;9.190;2022-07-23T05:27:34;25.40;99.90
10964;DHT22;5534;48.784;9.190;2022-07-23T05:30:00;25.40;99.90
10964;DHT22;5534;48.784;9.190;2022-07-23T05:32:26;25.40;99.90
10964;DHT22;5534;48.784;9.190;2022-07-23T05:34:52;25.40;99.90
10964;DHT22;5534;48.784;9.190;2022-07-23T05:37:18;25.50;99.90
10964;DHT22;5534;48.784;9.190;2022-07-23T05:39:44;25.50;99.90
10964;DHT22;5534;48.784;9.190;2022-07-23T05:42:09;25.60;99.90
10964;DHT22;5534;48.784;9.190;2022-07-23T05:44:35;25.60;99.90
10964;DHT22;5534;48.784;9.190;2022-07-23T05:47:01;25.60;99.90
10964;DHT22;5534;48.784;9.190;2022-07-23T05:49:27;25.50;99.90
10964;DHT22;5534;48.784;9.190;2022-07-23T05:51:53;25.60;99.90
10964;DHT22;5534;48.784;9.190;2022-07-23T05:54:19;25.40;99.90
10964;DHT22;5534;48.784;9.190;2022-07-23T05:56:44;25.40;99.90
10964;DHT22;5534;48.784;9.190;2022-07-23T05:59:10;25.40;99.90
10964;DHT22;5534;48.784;9.190;2022-07-23T06:01:38;25.60;99.90
10964;DHT22;5534;48.784;9.190;2022-07-23T06:04:04;25.50;99.90
10964;DHT22;5534;48.784;9.190;2022-07-23T06:06:30;25.40;99.90
10964;DHT22;5534;48.784;9.190;2022-07-23T06:08:55;25.40;99.90
10964;DHT22;5534;48.784;9.190;2022-07-23T06:11:21;25.40;99.90
10964;DHT22;5534;48.784;9.190;2022-07-23T06:13:47;25.40;99.90
10964;DHT22;5534;48.784;9.190;2022-07-23T06:16:13;25.40;99.90
10964;DHT22;5534;48.784;9.190;2022-07-23T06:18:38;25.40;99.90
10964;DHT22;5534;48.784;9.190;2022-07-23T06:21:05;25.30;99.90
10964;DHT22;5534;48.784;9.190;2022-07-23T06:23:31;25.30;99.90
10964;DHT22;5534;48.784;9.190;2022-07-23T06:25:56;25.30;99.90
10964;DHT22;5534;48.784;9.190;2022-07-23T06:28:22;25.50;99.90
10964;DHT22;5534;48.784;9.190;2022-07-23T06:30:48;25.70;99.90
10964;DHT22;5534;48.784;9.190;2022-07-23T06:33:14;25.80;99.90
10964;DHT22;5534;48.784;9.190;2022-07-23T06:35:39;25.90;99.90
10964;DHT22;5534;48.784;9.190;2022-07-23T06:38:05;26.10;99.90
10964;DHT22;5534;48.784;9.190;2022-07-23T06:40:31;26.10;99.90
10964;DHT22;5534;48.784;9.190;2022-07-23T06:42:57;26.00;99.90
10964;DHT22;5534;48.784;9.190;2022-07-23T06:45:22;25.90;99.90
10964;DHT22;5534;48.784;9.190;2022-07-23T06:47:48;25.90;99.90
10964;DHT22;5534;48.784;9.190;2022-07-23T06:50:14;25.90;99.90
10964;DHT22;5534;48.784;9.190;2022-07-23T06:52:40;26.00;99.90
10964;DHT22;5534;48.784;9.190;2022-07-23T06:55:06;26.00;99.90
10964;DHT22;5534;48.784;9.190;2022-07-23T06:57:32;26.00;99.90
10964;DHT22;5534;48.784;9.190;2022-07-23T06:59:57;26.00;99.90
10964;DHT22;5534;48.784;9.190;2022-07-23T07:02:23;25.90;99.90
10964;DHT22;5534;48.784;9.190;2022-07-23T07:04:49;25.70;99.90
10964;DHT22;5534;48.784;9.190;2022-07-23T07:07:15;25.40;99.90
10964;DHT22;5534;48.784;9.190;2022-07-23T07:09:41;25.20;99.90
10964;DHT22;5534;48.784;9.190;2022-07-23T07:12:07;25.10;99.90
10964;DHT22;5534;48.784;9.190;2022-07-23T07:14:33;25.10;99.90
10964;DHT22;5534;48.784;9.190;2022-07-23T07:16:58;25.20;99.90
10964;DHT22;5534;48.784;9.190;2022-07-23T07:19:24;25.20;99.90
10964;DHT22;5534;48.784;9.190;2022-07-23T07:21:50;25.20;99.90
10964;DHT22;5534;48.784;9.190;2022-07-23T07:24:16;25.30;99.90
10964;DHT22;5534;48.784;9.190;2022-07-23T07:26:41;25.30;99.90
10964;DHT22;5534;48.784;9.190;2022-07-23T07:29:07;25.20;99.90
10964;DHT22;5534;48.784;9.190;2022-07-23T07:31:33;25.10;99.90
10964;DHT22;5534;48.784;9.190;2022-07-23T07:33:59;24.90;99.90
10964;DHT22;5534;48.784;9.190;2022-07-23T07:36:25;24.70;99.90
10964;DHT22;5534;48.784;9.190;2022-07-23T07:38:50;24.70;99.90
10964;DHT22;5534;48.784;9.190;2022-07-23T07:41:16;24.90;99.90
10964;DHT22;5534;48.784;9.190;2022-07-23T07:43:42;24.90;99.90
10964;DHT22;5534;48.784;9.190;2022-07-23T07:46:08;24.90;99.90
10964;DHT22;5534;48.784;9.190;2022-07-23T07:48:36;25.00;99.90
10964;DHT22;5534;48.784;9.190;2022-07-23T07:51:03;24.90;99.90
10964;DHT22;5534;48.784;9.190;2022-07-23T07:53:31;25.20;99.90
10964;DHT22;5534;48.784;9.190;2022-07-23T07:55:57;25.70;99.90
10964;DHT22;5534;48.784;9.190;2022-07-23T07:58:23;26.30;99.90
10964;DHT22;5534;48.784;9.190;2022-07-23T08:00:48;26.00;99.90
10964;DHT22;5534;48.784;9.190;2022-07-23T08:03:14;25.50;99.90
10964;DHT22;5534;48.784;9.190;2022-07-23T08:05:40;25.20;99.90
10964;DHT22;5534;48.784;9.190;2022-07-23T08:08:06;25.30;99.90
10964;DHT22;5534;48.784;9.190;2022-07-23T08:10:32;25.30;99.90
10964;DHT22;5534;48.784;9.190;2022-07-23T08:12:58;25.50;99.90
10964;DHT22;5534;48.784;9.190;2022-07-23T08:15:27;25.70;99.90
10964;DHT22;5534;48.784;9.190;2022-07-23T08:17:54;26.10;99.90
10964;DHT22;5534;48.784;9.190;2022-07-23T08:20:21;26.70;99.90
10964;DHT22;5534;48.784;9.190;2022-07-23T08:23:07;26.80;99.90
10964;DHT22;5534;48.784;9.190;2022-07-23T08:25:39;26.30;99.90
10964;DHT22;5534;48.784;9.190;2022-07-23T08:28:07;25.90;99.90
10964;DHT22;5534;48.784;9.190;2022-07-23T08:30:34;25.30;99.90
10964;DHT22;5534;48.784;9.190;2022-07-23T08:33:06;25.20;99.90
10964;DHT22;5534;48.784;9.190;2022-07-23T08:35:38;25.00;99.90
10964;DHT22;5534;48.784;9.190;2022-07-23T08:38:08;25.00;99.90
10964;DHT22;5534;48.784;9.190;2022-07-23T08:40:40;24.90;99.90
10964;DHT22;5534;48.784;9.190;2022-07-23T08:43:09;24.90;99.90
10964;DHT22;5534;48.784;9.190;2022-07-23T08:45:47;25.30;99.90
10964;DHT22;5534;48.784;9.190;2022-07-23T08:48:21;25.70;99.90
10964;DHT22;5534;48.784;9.190;2022-07-23T08:50:52;25.80;99.90
10964;DHT22;5534;48.784;9.190;2022-07-23T08:53:21;26.50;99.90
10964;DHT22;5534;48.784;9.190;2022-07-23T08:55:52;26.80;99.90
10964;DHT22;5534;48.784;9.190;2022-07-23T08:58:19;26.90;99.90
10964;DHT22;5534;48.784;9.190;2022-07-23T09:00:46;26.90;99.90
10964;DHT22;5534;48.784;9.190;2022-07-23T09:03:23;27.10;99.90
10964;DHT22;5534;48.784;9.190;2022-07-23T09:05:51;27.10;99.90
10964;DHT22;5534;48.784;9.190;2022-07-23T09:08:19;27.20;99.90
10964;DHT22;5534;48.784;9.190;2022-07-23T09:10:58;27.20;99.90
10964;DHT22;5534;48.784;9.190;2022-07-23T09:16:17;27.80;99.90
10964;DHT22;5534;48.784;9.190;2022-07-23T09:18:47;27.80;99.90
10964;DHT22;5534;48.784;9.190;2022-07-23T09:21:34;27.60;99.90
10964;DHT22;5534;48.784;9.190;2022-07-23T09:24:12;27.60;99.90
10964;DHT22;5534;48.784;9.190;2022-07-23T09:29:12;28.00;99.90
10964;DHT22;5534;48.784;9.190;2022-07-23T09:36:48;27.90;99.90
10964;DHT22;5534;48.784;9.190;2022-07-23T09:39:16;27.60;99.90
10964;DHT22;5534;48.784;9.190;2022-07-23T09:41:47;27.60;99.90
10964;DHT22;5534;48.784;9.190;2022-07-23T09:44:18;27.70;99.90
10964;DHT22;5534;48.784;9.190;2022-07-23T09:46:46;27.70;99.90
10964;DHT22;5534;48.784;9.190;2022-07-23T09:49:15;27.70;99.50
10964;DHT22;5534;48.784;9.190;2022-07-23T09:54:23;27.30;99.80
10964;DHT22;5534;48.784;9.190;2022-07-23T09:56:52;27.40;99.70
10964;DHT22;5534;48.784;9.190;2022-07-23T09:59:18;27.60;99.30
10964;DHT22;5534;48.784;9.190;2022-07-23T10:01:47;27.70;99.20
10964;DHT22;5534;48.784;9.190;2022-07-23T10:04:14;27.80;99.70
10964;DHT22;5534;48.784;9.190;2022-07-23T10:06:40;27.80;99.50
10964;DHT22;5534;48.784;9.190;2022-07-23T10:09:12;27.80;99.60
10964;DHT22;5534;48.784;9.190;2022-07-23T10:11:39;27.90;99.20
10964;DHT22;5534;48.784;9.190;2022-07-23T10:14:05;28.10;98.70
10964;DHT22;5534;48.784;9.190;2022-07-23T10:16:31;27.90;98.60
10964;DHT22;5534;48.784;9.190;2022-07-23T10:18:57;28.00;98.50
10964;DHT22;5534;48.784;9.190;2022-07-23T10:21:45;28.10;98.10
10964;DHT22;5534;48.784;9.190;2022-07-23T10:26:58;27.80;98.40
10964;DHT22;5534;48.784;9.190;2022-07-23T10:29:52;27.90;98.50
10964;DHT22;5534;48.784;9.190;2022-07-23T10:35:18;28.10;98.10
10964;DHT22;5534;48.784;9.190;2022-07-23T10:38:00;28.10;97.70
10964;DHT22;5534;48.784;9.190;2022-07-23T10:40:27;28.10;97.70
10964;DHT22;5534;48.784;9.190;2022-07-23T10:42:59;28.20;97.40
10964;DHT22;5534;48.784;9.190;2022-07-23T10:45:35;28.30;96.90
10964;DHT22;5534;48.784;9.190;2022-07-23T10:48:20;28.30;96.90
10964;DHT22;5534;48.784;9.190;2022-07-23T10:51:24;28.50;96.40
10964;DHT22;5534;48.784;9.190;2022-07-23T10:53:57;28.80;95.50
10964;DHT22;5534;48.784;9.190;2022-07-23T10:56:49;29.00;95.30
10964;DHT22;5534;48.784;9.190;2022-07-23T10:59:15;29.30;94.80
10964;DHT22;5534;48.784;9.190;2022-07-23T11:01:41;29.50;94.50
10964;DHT22;5534;48.784;9.190;2022-07-23T11:04:07;29.40;93.90
10964;DHT22;5534;48.784;9.190;2022-07-23T11:09:39;28.90;94.50
10964;DHT22;5534;48.784;9.190;2022-07-23T11:17:31;28.70;95.20
10964;DHT22;5534;48.784;9.190;2022-07-23T11:25:33;28.80;95.90
10964;DHT22;5534;48.784;9.190;2022-07-23T11:28:11;29.20;95.10
10964;DHT22;5534;48.784;9.190;2022-07-23T11:30:41;29.40;94.70
10964;DHT22;5534;48.784;9.190;2022-07-23T11:35:34;29.10;95.10
10964;DHT22;5534;48.784;9.190;2022-07-23T11:38:20;28.80;95.70
10964;DHT22;5534;48.784;9.190;2022-07-23T11:40:58;28.80;95.50
10964;DHT22;5534;48.784;9.190;2022-07-23T11:43:24;28.80;95.80
10964;DHT22;5534;48.784;9.190;2022-07-23T11:45:58;28.80;95.80
10964;DHT22;5534;48.784;9.190;2022-07-23T11:48:26;28.80;96.20
10964;DHT22;5534;48.784;9.190;2022-07-23T11:50:54;28.90;96.00
10964;DHT22;5534;48.784;9.190;2022-07-23T11:53:25;28.90;96.10
10964;DHT22;5534;48.784;9.190;2022-07-23T11:55:52;29.00;96.40
10964;DHT22;5534;48.784;9.190;2022-07-23T11:58:18;29.30;95.80
10964;DHT22;5534;48.784;9.190;2022-07-23T12:00:44;29.30;95.50
10964;DHT22;5534;48.784;9.190;2022-07-23T12:03:10;29.20;95.60
10964;DHT22;5534;48.784;9.190;2022-07-23T12:05:37;29.10;95.80
10964;DHT22;5534;48.784;9.190;2022-07-23T12:08:05;29.00;96.20
10964;DHT22;5534;48.784;9.190;2022-07-23T12:10:44;28.90;95.90
10964;DHT22;5534;48.784;9.190;2022-07-23T12:13:16;28.80;96.10
10964;DHT22;5534;48.784;9.190;2022-07-23T12:15:44;28.70;96.20
10964;DHT22;5534;48.784;9.190;2022-07-23T12:18:14;28.80;96.40
10964;DHT22;5534;48.784;9.190;2022-07-23T12:20:45;28.80;96.20
10964;DHT22;5534;48.784;9.190;2022-07-23T12:23:15;29.00;96.40
10964;DHT22;5534;48.784;9.190;2022-07-23T12:25:43;29.30;95.80
10964;DHT22;5534;48.784;9.190;2022-07-23T12:33:10;29.00;95.30
10964;DHT22;5534;48.784;9.190;2022-07-23T12:35:42;28.90;95.40
10964;DHT22;5534;48.784;9.190;2022-07-23T12:38:12;29.00;95.20
10964;DHT22;5534;48.784;9.190;2022-07-23T12:40:47;29.10;94.90
10964;DHT22;5534;48.784;9.190;2022-07-23T12:48:29;29.10;95.20
10964;DHT22;5534;48.784;9.190;2022-07-23T12:50:59;29.00;95.50
10964;DHT22;5534;48.784;9.190;2022-07-23T12:53:36;29.10;95.60
10964;DHT22;5534;48.784;9.190;2022-07-23T12:56:26;29.10;95.40
10964;DHT22;5534;48.784;9.190;2022-07-23T13:01:34;29.20;95.70
10964;DHT22;5534;48.784;9.190;2022-07-23T13:04:08;29.20;96.00
10964;DHT22;5534;48.784;9.190;2022-07-23T13:09:03;29.30;95.60
10964;DHT22;5534;48.784;9.190;2022-07-23T13:11:30;29.10;95.70
10964;DHT22;5534;48.784;9.190;2022-07-23T13:13:55;29.10;95.70
10964;DHT22;5534;48.784;9.190;2022-07-23T13:16:21;28.90;95.40
10964;DHT22;5534;48.784;9.190;2022-07-23T13:18:52;28.80;95.10
10964;DHT22;5534;48.784;9.190;2022-07-23T13:21:19;28.80;95.10
10964;DHT22;5534;48.784;9.190;2022-07-23T13:23:44;28.90;94.50
10964;DHT22;5534;48.784;9.190;2022-07-23T13:26:10;29.10;94.10
10964;DHT22;5534;48.784;9.190;2022-07-23T13:28:36;29.20;94.20
10964;DHT22;5534;48.784;9.190;2022-07-23T13:31:02;29.30;94.00
10964;DHT22;5534;48.784;9.190;2022-07-23T13:33:28;29.20;93.70
10964;DHT22;5534;48.784;9.190;2022-07-23T13:35:54;29.10;93.80
10964;DHT22;5534;48.784;9.190;2022-07-23T13:38:21;29.20;94.00
10964;DHT22;5534;48.784;9.190;2022-07-23T13:40:49;29.30;93.90
10964;DHT22;5534;48.784;9.190;2022-07-23T13:43:17;29.40;93.70
10964;DHT22;5534;48.784;9.190;2022-07-23T13:45:43;29.40;93.80
10964;DHT22;5534;48.784;9.190;2022-07-23T13:48:10;29.50;94.30
10964;DHT22;5534;48.784;9.190;2022-07-23T13:50:37;29.50;94.30
10964;DHT22;5534;48.784;9.190;2022-07-23T13:53:12;29.60;94.40
10964;DHT22;5534;48.784;9.190;2022-07-23T13:55:39;29.70;94.50
10964;DHT22;5534;48.784;9.190;2022-07-23T13:58:06;29.80;94.50
10964;DHT22;5534;48.784;9.190;2022-07-23T14:00:34;29.80;94.00
10964;DHT22;5534;48.784;9.190;2022-07-23T14:03:00;29.80;93.10
10964;DHT22;5534;48.784;9.190;2022-07-23T14:05:26;29.50;93.30
10964;DHT22;5534;48.784;9.190;2022-07-23T14:07:52;29.40;93.60
10964;DHT22;5534;48.784;9.190;2022-07-23T14:10:20;29.40;93.80
10964;DHT22;5534;48.784;9.190;2022-07-23T14:12:48;29.30;94.00
10964;DHT22;5534;48.784;9.190;2022-07-23T14:15:14;29.20;94.20
10964;DHT22;5534;48.784;9.190;2022-07-23T14:17:43;29.10;94.20
10964;DHT22;5534;48.784;9.190;2022-07-23T14:20:10;29.10;94.40
10964;DHT22;5534;48.784;9.190;2022-07-23T14:22:36;29.30;94.10
10964;DHT22;5534;48.784;9.190;2022-07-23T14:25:03;29.30;94.40
10964;DHT22;5534;48.784;9.190;2022-07-23T14:27:29;29.40;94.00
10964;DHT22;5534;48.784;9.190;2022-07-23T14:29:56;29.60;93.40
10964;DHT22;5534;48.784;9.190;2022-07-23T14:32:22;29.50;93.00
10964;DHT22;5534;48.784;9.190;2022-07-23T14:34:49;29.60;93.10
10964;DHT22;5534;48.784;9.190;2022-07-23T14:37:15;29.80;92.80
10964;DHT22;5534;48.784;9.190;2022-07-23T14:39:42;29.80;92.90
10964;DHT22;5534;48.784;9.190;2022-07-23T14:42:09;29.90;92.70
10964;DHT22;5534;48.784;9.190;2022-07-23T14:44:35;29.80;92.80
10964;DHT22;5534;48.784;9.190;2022-07-23T14:47:03;29.90;92.50
10964;DHT22;5534;48.784;9.190;2022-07-23T14:49:31;29.80;92.10
10964;DHT22;5534;48.784;9.190;2022-07-23T14:51:57;29.80;92.10
10964;DHT22;5534;48.784;9.190;2022-07-23T14:54:23;29.90;92.00
10964;DHT22;5534;48.784;9.190;2022-07-23T14:56:52;29.80;92.00
10964;DHT22;5534;48.784;9.190;2022-07-23T14:59:18;29.90;91.90
10964;DHT22;5534;48.784;9.190;2022-07-23T15:01:43;29.90;91.70
10964;DHT22;5534;48.784;9.190;2022-07-23T15:04:09;30.10;90.20
10964;DHT22;5534;48.784;9.190;2022-07-23T15:06:35;30.00;90.20
10964;DHT22;5534;48.784;9.190;2022-07-23T15:09:01;30.00;90.60
10964;DHT22;5534;48.784;9.190;2022-07-23T15:11:28;30.00;90.80
10964;DHT22;5534;48.784;9.190;2022-07-23T15:13:56;30.00;90.60
10964;DHT22;5534;48.784;9.190;2022-07-23T15:16:22;29.80;90.40
10964;DHT22;5534;48.784;9.190;2022-07-23T15:18:50;29.60;90.60
10964;DHT22;5534;48.784;9.190;2022-07-23T15:21:15;29.60;90.50
10964;DHT22;5534;48.784;9.190;2022-07-23T15:23:41;29.50;90.50
10964;DHT22;5534;48.784;9.190;2022-07-23T15:26:07;29.60;90.90
10964;DHT22;5534;48.784;9.190;2022-07-23T15:28:34;29.60;91.20
10964;DHT22;5534;48.784;9.190;2022-07-23T15:31:01;29.60;91.30
10964;DHT22;5534;48.784;9.190;2022-07-23T15:33:27;29.50;91.90
10964;DHT22;5534;48.784;9.190;2022-07-23T15:35:52;29.50;91.70
10964;DHT22;5534;48.784;9.190;2022-07-23T15:38:21;29.60;91.70
10964;DHT22;5534;48.784;9.190;2022-07-23T15:40:47;29.60;91.80
10964;DHT22;5534;48.784;9.190;2022-07-23T15:43:12;29.50;91.60
10964;DHT22;5534;48.784;9.190;2022-07-23T15:45:39;29.50;91.80
10964;DHT22;5534;48.784;9.190;2022-07-23T15:48:07;29.60;91.60
10964;DHT22;5534;48.784;9.190;2022-07-23T15:50:33;29.60;91.60
10964;DHT22;5534;48.784;9.190;2022-07-23T15:52:59;29.60;91.70
10964;DHT22;5534;48.784;9.190;2022-07-23T15:55:24;29.70;91.50
10964;DHT22;5534;48.784;9.190;2022-07-23T15:57:51;29.60;91.60
10964;DHT22;5534;48.784;9.190;2022-07-23T16:00:17;29.70;91.30
10964;DHT22;5534;48.784;9.190;2022-07-23T16:02:43;29.60;91.70
10964;DHT22;5534;48.784;9.190;2022-07-23T16:05:09;29.60;91.70
10964;DHT22;5534;48.784;9.190;2022-07-23T16:07:54;29.70;91.50
10964;DHT22;5534;48.784;9.190;2022-07-23T16:10:20;29.70;91.40
10964;DHT22;5534;48.784;9.190;2022-07-23T16:12:47;29.60;91.70
10964;DHT22;5534;48.784;9.190;2022-07-23T16:15:13;29.40;92.00
10964;DHT22;5534;48.784;9.190;2022-07-23T16:17:39;29.30;92.10
10964;DHT22;5534;48.784;9.190;2022-07-23T16:20:05;29.30;92.20
10964;DHT22;5534;48.784;9.190;2022-07-23T16:22:33;29.40;92.10
10964;DHT22;5534;48.784;9.190;2022-07-23T16:24:59;29.40;92.40
10964;DHT22;5534;48.784;9.190;2022-07-23T16:27:25;29.30;92.20
10964;DHT22;5534;48.784;9.190;2022-07-23T16:29:51;29.30;92.70
10964;DHT22;5534;48.784;9.190;2022-07-23T16:32:17;29.20;92.30
10964;DHT22;5534;48.784;9.190;2022-07-23T16:34:43;29.40;92.20
10964;DHT22;5534;48.784;9.190;2022-07-23T16:37:09;29.40;92.50